Time;durP1;ratioP1;P1;durP2;ratioP2;P2;SDS_P1;SDS_P2;PMS_P1;PMS_P2;Temp;Humidity;BMP_temperature;BMP_pressure;BME280_temperature;BME280_humidity;BME280_pressure;Samples;Min_cycle;Max_cycle;Signal;HPM_P1;HPM_P2
2022/07/29 00:01:18;;;;;;;13.07;4.22;;;;;;;;;;4916369;29;20354;-57
2022/07/29 00:03:43;;;;;;;17.02;4.03;;;;;;;;;;4917276;29;20059;-59
2022/07/29 00:06:08;;;;;;;12.18;4.30;;;;;;;;;;4917560;29;20043;-58
2022/07/29 00:08:34;;;;;;;9.35;3.95;;;;;;;;;;4917404;29;20028;-59
2022/07/29 00:10:59;;;;;;;8.25;3.65;;;;;;;;;;4917177;29;20044;-55
2022/07/29 00:13:25;;;;;;;7.03;3.70;;;;;;;;;;4917478;29;20059;-55
2022/07/29 00:15:50;;;;;;;7.25;4.20;;;;;;;;;;4917266;29;20032;-51
2022/07/29 00:18:15;;;;;;;6.22;3.70;;;;;;;;;;4917279;29;20040;-43
2022/07/29 00:20:41;;;;;;;11.18;3.75;;;;;;;;;;4916631;29;20175;-54
2022/07/29 00:23:06;;;;;;;17.88;4.60;;;;;;;;;;4917001;29;20036;-59
2022/07/29 00:25:32;;;;;;;7.57;3.70;;;;;;;;;;4917267;29;20031;-55
2022/07/29 00:27:57;;;;;;;15.15;4.15;;;;;;;;;;4917123;29;20477;-51
2022/07/29 00:30:23;;;;;;;12.55;4.35;;;;;;;;;;4916777;29;20390;-43
2022/07/29 00:32:48;;;;;;;13.57;4.75;;;;;;;;;;4917091;29;20103;-46
2022/07/29 00:37:57;;;;;;;13.52;4.05;;;;;;;;;;4916892;29;20074;-57
2022/07/29 00:40:23;;;;;;;8.07;4.35;;;;;;;;;;4916791;29;20067;-46
2022/07/29 00:42:50;;;;;;;8.82;3.90;;;;;;;;;;4916704;29;20043;-58
2022/07/29 00:45:17;;;;;;;10.68;4.72;;;;;;;;;;4915314;29;20048;-59
2022/07/29 00:47:42;;;;;;;15.25;4.80;;;;;;;;;;4916561;29;20057;-54
2022/07/29 00:50:10;;;;;;;12.02;4.20;;;;;;;;;;4916838;29;20036;-59
2022/07/29 00:52:37;;;;;;;9.63;3.90;;;;;;;;;;4916948;29;20150;-57
2022/07/29 00:55:05;;;;;;;7.75;3.97;;;;;;;;;;4916565;29;20031;-59
2022/07/29 00:57:31;;;;;;;7.75;4.53;;;;;;;;;;4916498;29;20033;-57
2022/07/29 00:59:57;;;;;;;10.57;4.45;;;;;;;;;;4916765;29;20051;-58
2022/07/29 01:02:22;;;;;;;20.63;6.25;;;;;;;;;;4916462;29;20469;-58
2022/07/29 01:04:48;;;;;;;12.60;4.43;;;;;;;;;;4916720;29;20028;-57
2022/07/29 01:07:13;;;;;;;13.52;5.85;;;;;;;;;;4916496;29;20032;-59
2022/07/29 01:09:40;;;;;;;15.93;7.57;;;;;;;;;;4916290;29;20121;-57
2022/07/29 01:12:06;;;;;;;11.93;5.97;;;;;;;;;;4915863;29;20024;-58
2022/07/29 01:14:32;;;;;;;12.10;5.47;;;;;;;;;;4916593;29;20042;-59
2022/07/29 01:17:07;;;;;;;14.07;4.63;;;;;;;;;;4916354;29;20473;-60
2022/07/29 01:19:41;;;;;;;7.68;4.38;;;;;;;;;;4916596;29;20035;-60
2022/07/29 01:22:22;;;;;;;13.40;4.50;;;;;;;;;;4916303;29;20114;-59
2022/07/29 01:25:06;;;;;;;11.77;4.95;;;;;;;;;;4916577;29;20024;-60
2022/07/29 01:27:57;;;;;;;8.38;5.10;;;;;;;;;;4916531;29;20119;-60
2022/07/29 01:30:25;;;;;;;8.18;4.70;;;;;;;;;;4900993;29;20040;-60
2022/07/29 01:32:56;;;;;;;10.60;5.38;;;;;;;;;;4916109;29;20118;-59
2022/07/29 01:35:40;;;;;;;11.13;5.63;;;;;;;;;;4916442;29;20359;-52
2022/07/29 01:38:23;;;;;;;16.63;6.90;;;;;;;;;;4916390;29;20422;-60
2022/07/29 01:40:52;;;;;;;10.30;5.15;;;;;;;;;;4916375;29;20069;-60
2022/07/29 01:43:29;;;;;;;11.57;5.82;;;;;;;;;;4916638;29;20076;-48
2022/07/29 01:46:05;;;;;;;13.93;4.78;;;;;;;;;;4915972;29;20497;-49
2022/07/29 01:48:37;;;;;;;12.60;5.82;;;;;;;;;;4916089;29;20119;-54
2022/07/29 01:51:28;;;;;;;9.15;5.35;;;;;;;;;;4916341;29;20032;-52
2022/07/29 01:54:02;;;;;;;10.93;4.78;;;;;;;;;;4916056;29;20481;-57
2022/07/29 01:56:32;;;;;;;10.18;5.43;;;;;;;;;;4916199;29;20032;-59
2022/07/29 01:58:58;;;;;;;;;;;;;;;;;;4916387;29;20028;-59
2022/07/29 02:01:24;;;;;;;10.73;5.22;;;;;;;;;;4915906;29;19959;-57
2022/07/29 02:03:52;;;;;;;8.80;5.50;;;;;;;;;;4916136;29;20043;-60
2022/07/29 02:06:20;;;;;;;12.43;5.82;;;;;;;;;;4915827;29;20035;-57
2022/07/29 02:08:47;;;;;;;8.38;5.53;;;;;;;;;;4915830;29;20115;-59
2022/07/29 02:11:13;;;;;;;9.65;4.82;;;;;;;;;;4930450;29;20028;-56
2022/07/29 02:13:40;;;;;;;15.07;5.40;;;;;;;;;;4915899;29;20388;-60
2022/07/29 02:16:08;;;;;;;11.77;5.22;;;;;;;;;;4915809;29;20039;-60
2022/07/29 02:18:37;;;;;;;11.68;5.30;;;;;;;;;;4916125;29;20127;-60
2022/07/29 02:21:03;;;;;;;10.65;5.78;;;;;;;;;;4915781;29;20029;-60
2022/07/29 02:23:30;;;;;;;10.35;5.70;;;;;;;;;;4916707;29;20028;-60
2022/07/29 02:25:57;;;;;;;13.48;5.88;;;;;;;;;;4919524;29;20062;-60
2022/07/29 02:28:25;;;;;;;12.35;5.82;;;;;;;;;;4919224;29;20040;-60
2022/07/29 02:30:53;;;;;;;11.23;6.05;;;;;;;;;;4919371;29;20091;-58
2022/07/29 02:33:19;;;;;;;8.20;6.18;;;;;;;;;;4919043;29;20032;-59
2022/07/29 02:35:46;;;;;;;16.83;6.53;;;;;;;;;;4919023;29;20036;-59
2022/07/29 02:41:01;;;;;;;9.73;6.85;;;;;;;;;;4919242;29;20034;-59
2022/07/29 02:43:29;;;;;;;13.77;6.38;;;;;;;;;;4918978;29;20055;-42
2022/07/29 02:45:58;;;;;;;12.40;5.97;;;;;;;;;;4918676;29;20478;-43
2022/07/29 02:48:31;;;;;;;9.68;6.05;;;;;;;;;;4918815;29;20028;-58
2022/07/29 02:51:06;;;;;;;11.52;6.40;;;;;;;;;;4919013;29;20076;-56
2022/07/29 02:53:34;;;;;;;9.98;6.43;;;;;;;;;;4918795;29;20553;-54
2022/07/29 02:56:06;;;;;;;11.07;6.07;;;;;;;;;;4918912;29;20043;-59
2022/07/29 02:58:34;;;;;;;15.55;6.43;;;;;;;;;;4918680;29;20028;-60
2022/07/29 03:01:02;;;;;;;12.23;6.13;;;;;;;;;;4918599;29;20107;-59
2022/07/29 03:03:32;;;;;;;10.10;6.28;;;;;;;;;;4918807;29;20393;-53
2022/07/29 03:06:00;;;;;;;11.43;6.50;;;;;;;;;;4918838;29;20024;-58
2022/07/29 03:08:27;;;;;;;11.18;6.70;;;;;;;;;;4918417;29;20028;-58
2022/07/29 03:10:53;;;;;;;12.68;6.90;;;;;;;;;;4918644;29;20032;-57
2022/07/29 03:13:19;;;;;;;14.30;6.40;;;;;;;;;;4918679;29;20442;-46
2022/07/29 03:15:45;;;;;;;12.52;6.05;;;;;;;;;;4918612;29;20064;-56
2022/07/29 03:18:12;;;;;;;10.73;5.65;;;;;;;;;;4918328;29;20469;-55
2022/07/29 03:20:38;;;;;;;7.32;5.32;;;;;;;;;;4918478;29;20063;-56
2022/07/29 03:23:04;;;;;;;9.38;5.32;;;;;;;;;;4918452;29;20036;-41
2022/07/29 03:25:30;;;;;;;5.95;5.13;;;;;;;;;;4918063;29;20028;-58
2022/07/29 03:27:56;;;;;;;8.63;5.55;;;;;;;;;;4918064;29;20031;-60
2022/07/29 03:30:22;;;;;;;8.57;5.00;;;;;;;;;;4917975;29;20458;-58
2022/07/29 03:32:48;;;;;;;8.68;5.75;;;;;;;;;;4917911;29;20135;-60
2022/07/29 03:35:16;;;;;;;7.35;5.85;;;;;;;;;;4917307;29;20103;-59
2022/07/29 03:37:42;;;;;;;14.57;5.40;;;;;;;;;;4918210;29;20087;-54
2022/07/29 03:40:09;;;;;;;8.38;4.90;;;;;;;;;;4917906;29;20032;-60
2022/07/29 03:42:37;;;;;;;7.53;5.32;;;;;;;;;;4917909;29;20032;-57
2022/07/29 03:45:06;;;;;;;7.65;5.18;;;;;;;;;;4917686;29;20048;-55
2022/07/29 03:47:34;;;;;;;6.40;4.38;;;;;;;;;;4916555;29;20056;-57
2022/07/29 03:50:04;;;;;;;8.15;4.97;;;;;;;;;;4917663;29;20028;-59
2022/07/29 03:52:30;;;;;;;6.88;4.78;;;;;;;;;;4918005;29;20032;-60
2022/07/29 03:54:55;;;;;;;6.45;4.38;;;;;;;;;;4917683;29;20031;-42
2022/07/29 03:57:24;;;;;;;7.30;4.68;;;;;;;;;;4917875;29;20031;-59
2022/07/29 03:59:51;;;;;;;6.05;5.00;;;;;;;;;;4917549;29;20032;-60
2022/07/29 04:02:17;;;;;;;7.28;5.00;;;;;;;;;;4917522;29;20048;-59
2022/07/29 04:04:42;;;;;;;6.25;4.63;;;;;;;;;;4917538;29;20021;-59
2022/07/29 04:07:14;;;;;;;5.13;4.45;;;;;;;;;;4917383;29;20462;-56
2022/07/29 04:09:40;;;;;;;7.65;4.45;;;;;;;;;;4917614;29;20032;-58
2022/07/29 04:12:06;;;;;;;7.32;4.80;;;;;;;;;;4917584;29;20400;-57
2022/07/29 04:14:32;;;;;;;6.72;4.50;;;;;;;;;;4917202;29;20032;-53
2022/07/29 04:16:58;;;;;;;6.32;4.72;;;;;;;;;;4917488;29;20393;-55
2022/07/29 04:19:23;;;;;;;10.23;6.20;;;;;;;;;;4917120;29;20087;-51
2022/07/29 04:21:49;;;;;;;7.32;4.60;;;;;;;;;;4917408;29;20028;-46
2022/07/29 04:24:14;;;;;;;10.88;4.45;;;;;;;;;;4917021;29;20084;-58
2022/07/29 04:26:40;;;;;;;6.88;4.55;;;;;;;;;;4917314;29;20131;-50
2022/07/29 04:29:05;;;;;;;8.30;4.57;;;;;;;;;;4916955;29;20021;-46
2022/07/29 04:31:30;;;;;;;10.40;4.68;;;;;;;;;;4916948;29;20028;-41
2022/07/29 04:33:56;;;;;;;8.25;4.38;;;;;;;;;;4917226;29;20067;-56
2022/07/29 04:36:21;;;;;;;9.10;4.07;;;;;;;;;;4916888;29;20063;-58
2022/07/29 04:38:46;;;;;;;5.53;4.15;;;;;;;;;;4916914;29;20036;-50
2022/07/29 04:41:12;;;;;;;4.70;3.83;;;;;;;;;;4916755;29;20024;-57
2022/07/29 04:43:37;;;;;;;7.03;4.30;;;;;;;;;;4916734;29;20079;-48
2022/07/29 04:46:05;;;;;;;5.30;4.05;;;;;;;;;;4916445;29;20052;-46
2022/07/29 04:48:31;;;;;;;4.28;3.88;;;;;;;;;;4916625;29;20458;-58
2022/07/29 04:50:56;;;;;;;6.88;3.88;;;;;;;;;;4916457;29;20102;-58
2022/07/29 04:53:22;;;;;;;7.70;4.35;;;;;;;;;;4916583;29;20032;-55
2022/07/29 04:55:48;;;;;;;5.25;3.63;;;;;;;;;;4916762;29;20091;-53
2022/07/29 04:58:13;;;;;;;4.03;3.22;;;;;;;;;;4916712;29;20381;-41
2022/07/29 05:00:39;;;;;;;5.82;3.70;;;;;;;;;;4916361;29;20043;-43
2022/07/29 05:03:05;;;;;;;5.53;3.47;;;;;;;;;;4916431;29;20060;-46
2022/07/29 05:05:30;;;;;;;4.43;4.05;;;;;;;;;;4916392;29;20389;-46
2022/07/29 05:07:56;;;;;;;5.28;3.00;;;;;;;;;;4916432;29;20099;-42
2022/07/29 05:10:21;;;;;;;4.00;3.10;;;;;;;;;;4912955;29;20040;-51
2022/07/29 05:12:47;;;;;;;8.45;4.55;;;;;;;;;;4904812;29;20024;-47
2022/07/29 05:15:13;;;;;;;4.40;3.78;;;;;;;;;;4905905;29;20444;-40
2022/07/29 05:17:38;;;;;;;4.75;4.35;;;;;;;;;;4906019;29;20027;-43
2022/07/29 05:20:05;;;;;;;4.63;3.80;;;;;;;;;;4904534;29;20020;-44
2022/07/29 05:22:30;;;;;;;5.43;2.63;;;;;;;;;;4905264;29;20028;-45
2022/07/29 05:24:56;;;;;;;3.35;3.05;;;;;;;;;;4916489;29;20031;-51
2022/07/29 05:27:21;;;;;;;4.25;3.83;;;;;;;;;;4913471;29;20032;-43
2022/07/29 05:29:47;;;;;;;4.78;4.05;;;;;;;;;;4903708;29;20040;-47
2022/07/29 05:32:13;;;;;;;3.63;3.25;;;;;;;;;;4909101;29;20036;-42
2022/07/29 05:34:39;;;;;;;4.05;2.70;;;;;;;;;;4914891;29;20024;-43
2022/07/29 05:37:05;;;;;;;7.57;3.80;;;;;;;;;;4914984;29;20450;-54
2022/07/29 05:39:30;;;;;;;3.60;3.13;;;;;;;;;;4915012;29;20036;-52
2022/07/29 05:41:56;;;;;;;5.95;3.30;;;;;;;;;;4915040;29;20103;-47
2022/07/29 05:44:21;;;;;;;4.88;3.40;;;;;;;;;;4915028;29;20059;-51
2022/07/29 05:46:46;;;;;;;9.70;3.00;;;;;;;;;;4915365;29;20036;-43
2022/07/29 05:49:12;;;;;;;4.15;3.10;;;;;;;;;;4915971;29;20496;-45
2022/07/29 05:51:38;;;;;;;3.83;2.75;;;;;;;;;;4916265;29;20079;-52
2022/07/29 05:54:03;;;;;;;7.10;3.78;;;;;;;;;;4916311;29;20028;-46
2022/07/29 05:56:28;;;;;;;3.53;2.88;;;;;;;;;;4916291;29;20469;-43
2022/07/29 05:58:54;;;;;;;4.90;3.03;;;;;;;;;;4917532;29;20032;-44
2022/07/29 06:01:20;;;;;;;4.78;3.63;;;;;;;;;;4919566;29;20028;-46
2022/07/29 06:03:45;;;;;;;3.35;2.88;;;;;;;;;;4919617;29;20035;-43
2022/07/29 06:06:11;;;;;;;4.97;2.85;;;;;;;;;;4919819;29;20031;-43
2022/07/29 06:08:37;;;;;;;17.70;3.45;;;;;;;;;;4919458;29;20448;-49
2022/07/29 06:11:03;;;;;;;4.47;3.78;;;;;;;;;;4919547;29;20076;-42
2022/07/29 06:13:29;;;;;;;5.72;3.33;;;;;;;;;;4919860;29;20024;-44
2022/07/29 06:15:55;;;;;;;3.72;2.80;;;;;;;;;;4919637;29;20039;-43
2022/07/29 06:18:23;;;;;;;3.25;2.67;;;;;;;;;;4919546;29;20024;-46
2022/07/29 06:20:53;;;;;;;5.20;3.13;;;;;;;;;;4919478;29;20393;-47
2022/07/29 06:23:19;;;;;;;3.50;3.20;;;;;;;;;;4919480;29;20035;-43
2022/07/29 06:25:45;;;;;;;3.30;2.80;;;;;;;;;;4919516;29;20040;-42
2022/07/29 06:28:10;;;;;;;6.85;3.75;;;;;;;;;;4919507;29;20525;-42
2022/07/29 06:30:36;;;;;;;5.03;3.55;;;;;;;;;;4919018;29;20396;-44
2022/07/29 06:33:02;;;;;;;4.55;4.03;;;;;;;;;;4919339;29;20035;-45
2022/07/29 06:35:28;;;;;;;3.80;3.45;;;;;;;;;;4919066;29;20485;-43
2022/07/29 06:37:53;;;;;;;4.10;3.47;;;;;;;;;;4919211;29;20043;-50
2022/07/29 06:43:03;;;;;;;5.25;3.00;;;;;;;;;;4919208;29;20385;-43
2022/07/29 06:45:28;;;;;;;6.88;3.80;;;;;;;;;;4918732;29;20048;-50
2022/07/29 06:47:54;;;;;;;6.93;4.10;;;;;;;;;;4918813;29;20028;-52
2022/07/29 06:50:20;;;;;;;8.13;3.67;;;;;;;;;;4918780;29;20028;-49
2022/07/29 06:52:45;;;;;;;3.65;3.33;;;;;;;;;;4917797;29;20035;-41
2022/07/29 06:55:10;;;;;;;3.97;3.33;;;;;;;;;;4918652;29;20027;-44
2022/07/29 06:57:36;;;;;;;4.75;3.35;;;;;;;;;;4918669;29;20032;-46
2022/07/29 07:00:04;;;;;;;3.78;3.45;;;;;;;;;;4918864;29;20027;-42
2022/07/29 07:02:30;;;;;;;8.40;4.03;;;;;;;;;;4918829;29;20429;-50
2022/07/29 07:04:55;;;;;;;3.90;2.78;;;;;;;;;;4918517;29;20087;-44
2022/07/29 07:07:20;;;;;;;3.10;2.80;;;;;;;;;;4918805;29;20024;-43
2022/07/29 07:09:46;;;;;;;4.18;3.88;;;;;;;;;;4917728;29;20032;-42
2022/07/29 07:12:11;;;;;;;8.93;4.30;;;;;;;;;;4918303;29;20051;-43
2022/07/29 07:14:37;;;;;;;4.60;4.18;;;;;;;;;;4917710;29;20119;-43
2022/07/29 07:17:03;;;;;;;18.10;4.40;;;;;;;;;;4918512;29;20487;-41
2022/07/29 07:19:29;;;;;;;4.75;3.58;;;;;;;;;;4918446;29;20032;-44
2022/07/29 07:21:55;;;;;;;7.10;4.30;;;;;;;;;;4918464;29;20028;-42
2022/07/29 07:24:20;;;;;;;4.97;3.72;;;;;;;;;;4918424;29;20111;-42
2022/07/29 07:26:46;;;;;;;4.00;3.53;;;;;;;;;;4918378;29;20432;-41
2022/07/29 07:29:11;;;;;;;6.88;3.55;;;;;;;;;;4918191;29;20449;-41
2022/07/29 07:31:37;;;;;;;7.70;3.45;;;;;;;;;;4918050;29;20106;-45
2022/07/29 07:34:03;;;;;;;6.03;3.83;;;;;;;;;;4917887;29;20095;-42
2022/07/29 07:36:28;;;;;;;6.03;3.58;;;;;;;;;;4917338;29;20088;-42
2022/07/29 07:38:54;;;;;;;8.48;3.72;;;;;;;;;;4917857;29;20473;-41
2022/07/29 07:41:19;;;;;;;6.43;4.18;;;;;;;;;;4918084;29;20087;-46
2022/07/29 07:43:45;;;;;;;3.72;3.10;;;;;;;;;;4918111;29;20684;-45
2022/07/29 07:46:10;;;;;;;4.18;3.08;;;;;;;;;;4916280;29;20052;-41
2022/07/29 07:48:36;;;;;;;3.78;2.67;;;;;;;;;;4915011;29;20412;-43
2022/07/29 07:51:01;;;;;;;4.85;3.58;;;;;;;;;;4912709;29;20043;-41
2022/07/29 07:53:29;;;;;;;3.90;2.38;;;;;;;;;;4917425;29;20493;-40
2022/07/29 07:55:55;;;;;;;6.18;3.28;;;;;;;;;;4917509;29;20119;-41
2022/07/29 07:58:20;;;;;;;4.45;3.20;;;;;;;;;;4917459;29;20071;-43
2022/07/29 08:00:46;;;;;;;4.75;3.30;;;;;;;;;;4917474;29;20028;-42
2022/07/29 08:03:13;;;;;;;4.65;2.95;;;;;;;;;;4917378;29;20470;-42
2022/07/29 08:05:39;;;;;;;7.68;3.65;;;;;;;;;;4917625;29;20036;-45
2022/07/29 08:08:05;;;;;;;4.05;3.00;;;;;;;;;;4917672;29;20028;-41
2022/07/29 08:13:29;;;;;;;3.72;3.38;;;;;;;;;;4885145;29;20072;-42
2022/07/29 08:15:59;;;;;;;8.05;3.90;;;;;;;;;;4917283;29;20044;-50
2022/07/29 08:18:29;;;;;;;3.75;3.45;;;;;;;;;;4917155;29;20099;-50
2022/07/29 08:20:55;;;;;;;6.63;3.50;;;;;;;;;;4917144;29;20385;-42
2022/07/29 08:23:22;;;;;;;4.13;3.00;;;;;;;;;;4917024;29;20481;-53
2022/07/29 08:25:48;;;;;;;7.70;4.20;;;;;;;;;;4917255;29;20032;-50
2022/07/29 08:28:14;;;;;;;5.18;4.13;;;;;;;;;;4917329;29;20032;-53
2022/07/29 08:30:40;;;;;;;6.82;4.00;;;;;;;;;;4917068;29;20392;-53
2022/07/29 08:33:05;;;;;;;4.45;2.97;;;;;;;;;;4916838;29;20116;-44
2022/07/29 08:35:31;;;;;;;6.38;3.10;;;;;;;;;;4917096;29;20059;-45
2022/07/29 08:37:56;;;;;;;4.40;3.25;;;;;;;;;;4916859;29;20072;-43
2022/07/29 08:40:23;;;;;;;6.75;3.53;;;;;;;;;;4916804;29;20114;-45
2022/07/29 08:42:49;;;;;;;3.75;2.70;;;;;;;;;;4915400;29;20038;-44
2022/07/29 08:45:15;;;;;;;7.40;3.40;;;;;;;;;;4915048;29;20040;-47
2022/07/29 08:47:41;;;;;;;15.85;3.10;;;;;;;;;;4915459;29;20038;-42
2022/07/29 08:50:08;;;;;;;5.35;3.30;;;;;;;;;;4915103;29;20099;-42
2022/07/29 08:52:37;;;;;;;5.53;3.17;;;;;;;;;;4914840;29;20036;-48
2022/07/29 08:55:03;;;;;;;4.93;3.20;;;;;;;;;;4915116;29;20080;-49
2022/07/29 08:57:30;;;;;;;3.35;3.00;;;;;;;;;;4914043;29;20061;-50
2022/07/29 08:59:58;;;;;;;4.35;3.42;;;;;;;;;;4915222;29;20063;-43
2022/07/29 09:02:26;;;;;;;4.57;3.70;;;;;;;;;;4915254;29;20020;-51
2022/07/29 09:04:52;;;;;;;7.97;3.10;;;;;;;;;;4915025;29;20095;-52
2022/07/29 09:07:18;;;;;;;12.98;3.58;;;;;;;;;;4914859;29;20028;-50
2022/07/29 09:09:44;;;;;;;6.25;3.15;;;;;;;;;;4914547;29;20429;-47
2022/07/29 09:12:13;;;;;;;3.47;3.17;;;;;;;;;;4914761;29;20539;-42
2022/07/29 09:14:39;;;;;;;3.78;3.00;;;;;;;;;;4914725;29;20032;-46
2022/07/29 09:17:05;;;;;;;2.78;1.92;;;;;;;;;;4914493;29;20092;-54
2022/07/29 09:19:37;;;;;;;6.63;2.97;;;;;;;;;;4914941;29;20111;-50
2022/07/29 09:22:04;;;;;;;9.27;3.25;;;;;;;;;;4914855;29;20028;-50
2022/07/29 09:24:47;;;;;;;5.85;3.35;;;;;;;;;;4914314;29;20039;-51
2022/07/29 09:27:19;;;;;;;3.25;2.95;;;;;;;;;;4914882;29;20028;-51
2022/07/29 09:29:45;;;;;;;2.58;2.38;;;;;;;;;;4914799;29;20051;-50
2022/07/29 09:32:10;;;;;;;3.35;2.78;;;;;;;;;;4914872;29;20532;-53
2022/07/29 09:34:36;;;;;;;3.95;3.10;;;;;;;;;;4917095;29;20123;-51
2022/07/29 09:37:02;;;;;;;2.97;2.30;;;;;;;;;;4918168;29;20060;-44
2022/07/29 09:39:31;;;;;;;3.08;2.60;;;;;;;;;;4918783;29;20036;-46
2022/07/29 09:41:59;;;;;;;3.42;3.13;;;;;;;;;;4918532;29;20034;-46
2022/07/29 09:44:26;;;;;;;4.45;2.67;;;;;;;;;;4917996;29;20051;-55
2022/07/29 09:46:54;;;;;;;3.50;3.20;;;;;;;;;;4918531;29;20070;-52
2022/07/29 09:49:20;;;;;;;5.20;3.15;;;;;;;;;;4918182;29;20500;-44
2022/07/29 09:51:45;;;;;;;3.80;3.50;;;;;;;;;;4916911;29;20135;-53
2022/07/29 09:54:27;;;;;;;5.30;3.72;;;;;;;;;;4918180;29;20076;-47
2022/07/29 09:56:54;;;;;;;3.80;3.20;;;;;;;;;;4918564;29;20414;-50
2022/07/29 09:59:24;;;;;;;5.40;3.05;;;;;;;;;;4917959;29;20080;-53
2022/07/29 10:01:52;;;;;;;3.85;3.50;;;;;;;;;;4918030;29;20542;-56
2022/07/29 10:04:18;;;;;;;3.45;3.15;;;;;;;;;;4918251;29;20036;-43
2022/07/29 10:07:01;;;;;;;3.35;2.47;;;;;;;;;;4918049;29;20040;-51
2022/07/29 10:09:27;;;;;;;4.55;3.45;;;;;;;;;;4917584;29;20151;-48
2022/07/29 10:12:15;;;;;;;2.92;2.72;;;;;;;;;;4918193;29;20116;-47
2022/07/29 10:14:41;;;;;;;5.57;3.60;;;;;;;;;;4918073;29;20098;-49
2022/07/29 10:17:09;;;;;;;4.35;3.65;;;;;;;;;;4906723;29;20041;-47
2022/07/29 10:19:35;;;;;;;4.22;3.08;;;;;;;;;;4888484;29;20037;-47
2022/07/29 10:22:03;;;;;;;4.47;3.55;;;;;;;;;;4898831;29;20779;-45
2022/07/29 10:24:30;;;;;;;8.57;3.63;;;;;;;;;;4898574;29;20037;-48
2022/07/29 10:26:57;;;;;;;3.10;2.83;;;;;;;;;;4898720;29;20371;-52
2022/07/29 10:29:24;;;;;;;3.80;3.50;;;;;;;;;;4898566;29;20489;-50
2022/07/29 10:32:00;;;;;;;3.97;3.67;;;;;;;;;;4898577;29;20029;-52
2022/07/29 10:34:53;;;;;;;4.50;3.28;;;;;;;;;;4898928;29;20028;-53
2022/07/29 10:37:24;;;;;;;4.85;3.50;;;;;;;;;;4898908;29;20037;-50
2022/07/29 10:41:26;;;;;;;5.32;3.75;;;;;;;;;;4898479;29;20584;-48
2022/07/29 10:42:55;;;;;;;6.63;4.03;;;;;;;;;;4898416;29;20510;-42
2022/07/29 10:45:21;;;;;;;4.43;3.67;;;;;;;;;;4898037;29;20405;-53
2022/07/29 10:47:46;;;;;;;4.25;3.65;;;;;;;;;;4898668;29;20055;-47
2022/07/29 10:50:12;;;;;;;6.85;3.53;;;;;;;;;;4898270;29;20037;-47
2022/07/29 10:52:49;;;;;;;5.38;4.20;;;;;;;;;;4898582;29;20029;-48
2022/07/29 10:55:42;;;;;;;10.40;4.18;;;;;;;;;;4898309;29;20482;-52
2022/07/29 10:58:15;;;;;;;4.00;3.60;;;;;;;;;;4897128;29;20047;-48
2022/07/29 11:00:40;;;;;;;5.70;4.22;;;;;;;;;;4898266;29;20548;-44
2022/07/29 11:03:06;;;;;;;3.28;2.97;;;;;;;;;;4898372;29;20040;-45
2022/07/29 11:05:55;;;;;;;3.53;3.22;;;;;;;;;;4898409;29;20052;-44
2022/07/29 11:08:25;;;;;;;4.15;3.55;;;;;;;;;;4898197;29;20052;-42
2022/07/29 11:11:12;;;;;;;3.95;3.17;;;;;;;;;;4898332;29;20494;-49
2022/07/29 11:13:46;;;;;;;5.18;3.78;;;;;;;;;;4897940;29;20505;-51
2022/07/29 11:16:11;;;;;;;4.30;3.65;;;;;;;;;;4898220;29;20037;-46
2022/07/29 11:19:12;;;;;;;9.75;4.28;;;;;;;;;;4898000;29;20036;-47
2022/07/29 11:21:40;;;;;;;4.65;3.90;;;;;;;;;;4897853;29;20568;-51
2022/07/29 11:24:14;;;;;;;6.93;4.20;;;;;;;;;;4897898;29;20629;-46
2022/07/29 11:26:39;;;;;;;6.13;3.85;;;;;;;;;;4897738;29;20033;-50
2022/07/29 11:29:22;;;;;;;4.97;3.80;;;;;;;;;;4897621;29;20043;-51
2022/07/29 11:31:55;;;;;;;4.50;4.10;;;;;;;;;;4897659;29;20040;-46
2022/07/29 11:34:23;;;;;;;4.30;3.85;;;;;;;;;;4897968;29;20032;-47
2022/07/29 11:37:13;;;;;;;4.90;4.07;;;;;;;;;;4897807;29;20037;-50
2022/07/29 11:39:42;;;;;;;4.95;4.15;;;;;;;;;;4897746;29;20036;-51
2022/07/29 11:42:16;;;;;;;7.00;4.20;;;;;;;;;;4897474;29;20720;-49
2022/07/29 11:45:06;;;;;;;4.28;3.88;;;;;;;;;;4897582;29;20088;-52
2022/07/29 11:47:34;;;;;;;4.82;4.38;;;;;;;;;;4897390;29;20039;-52
2022/07/29 11:50:00;;;;;;;4.50;4.03;;;;;;;;;;4896029;29;20065;-52
2022/07/29 11:52:45;;;;;;;8.90;4.55;;;;;;;;;;4897491;29;20020;-50
2022/07/29 11:55:24;;;;;;;8.65;4.70;;;;;;;;;;4897534;29;20071;-49
2022/07/29 11:57:52;;;;;;;;;;;;;;;;;;4896924;29;20036;-48
2022/07/29 12:00:38;;;;;;;7.13;4.70;;;;;;;;;;4897394;29;19919;-47
2022/07/29 12:03:09;;;;;;;7.45;4.50;;;;;;;;;;4897283;29;20040;-41
2022/07/29 12:05:36;;;;;;;6.70;4.43;;;;;;;;;;4896876;29;20490;-51
2022/07/29 12:08:27;;;;;;;7.35;4.53;;;;;;;;;;4897218;29;20055;-49
2022/07/29 12:10:53;;;;;;;6.65;4.60;;;;;;;;;;4894065;29;20398;-41
2022/07/29 12:13:20;;;;;;;9.18;4.40;;;;;;;;;;4896864;29;20036;-46
2022/07/29 12:15:54;;;;;;;5.95;4.30;;;;;;;;;;4896992;29;20091;-49
2022/07/29 12:18:20;;;;;;;5.75;4.70;;;;;;;;;;4896730;29;20119;-44
2022/07/29 12:20:47;;;;;;;6.97;4.13;;;;;;;;;;4896646;29;20493;-52
2022/07/29 12:23:14;;;;;;;8.65;4.80;;;;;;;;;;4896780;29;20029;-47
2022/07/29 12:25:42;;;;;;;5.75;4.25;;;;;;;;;;4896825;29;20160;-51
2022/07/29 12:28:10;;;;;;;4.72;3.95;;;;;;;;;;4896859;29;20573;-45
2022/07/29 12:30:44;;;;;;;5.15;4.13;;;;;;;;;;4896717;29;20115;-46
2022/07/29 12:33:15;;;;;;;4.80;4.13;;;;;;;;;;4896875;29;20077;-54
2022/07/29 12:35:44;;;;;;;5.35;4.40;;;;;;;;;;4896434;29;20036;-42
2022/07/29 12:38:12;;;;;;;6.60;4.43;;;;;;;;;;4896300;29;20119;-47
2022/07/29 12:40:37;;;;;;;7.72;4.55;;;;;;;;;;4896398;29;20048;-48
2022/07/29 12:43:16;;;;;;;4.45;3.92;;;;;;;;;;4896010;29;20036;-49
2022/07/29 12:45:51;;;;;;;4.85;4.30;;;;;;;;;;4895911;29;20172;-42
2022/07/29 12:48:17;;;;;;;4.80;4.22;;;;;;;;;;4896356;29;20044;-49
2022/07/29 12:51:01;;;;;;;7.35;4.30;;;;;;;;;;4896526;29;20131;-49
2022/07/29 12:53:27;;;;;;;11.75;4.40;;;;;;;;;;4896535;29;20033;-48
2022/07/29 12:55:54;;;;;;;5.00;3.83;;;;;;;;;;4896190;29;20072;-46
2022/07/29 12:58:32;;;;;;;7.80;4.50;;;;;;;;;;4896011;29;20033;-43
2022/07/29 13:01:06;;;;;;;7.78;4.57;;;;;;;;;;4896134;29;20032;-43
2022/07/29 13:04:03;;;;;;;8.27;4.25;;;;;;;;;;4896341;29;20060;-45
2022/07/29 13:06:38;;;;;;;4.68;4.00;;;;;;;;;;4896405;29;20035;-48
2022/07/29 13:09:08;;;;;;;5.75;3.83;;;;;;;;;;4895894;29;20029;-48
2022/07/29 13:11:41;;;;;;;10.45;4.25;;;;;;;;;;4896348;29;20426;-47
2022/07/29 13:14:09;;;;;;;8.20;4.40;;;;;;;;;;4896245;29;20024;-52
2022/07/29 13:16:35;;;;;;;5.82;4.13;;;;;;;;;;4896005;29;20036;-50
2022/07/29 13:19:18;;;;;;;6.20;4.25;;;;;;;;;;4895633;29;20043;-50
2022/07/29 13:21:45;;;;;;;5.55;4.13;;;;;;;;;;4895878;29;20032;-50
2022/07/29 13:24:12;;;;;;;7.28;4.35;;;;;;;;;;4895121;29;20434;-52
2022/07/29 13:26:40;;;;;;;6.30;4.60;;;;;;;;;;4896036;29;20416;-44
2022/07/29 13:29:06;;;;;;;6.10;4.47;;;;;;;;;;4895906;29;20158;-44
2022/07/29 13:31:31;;;;;;;4.93;4.53;;;;;;;;;;4896107;29;20115;-44
2022/07/29 13:33:57;;;;;;;4.85;4.43;;;;;;;;;;4895867;29;20079;-43
2022/07/29 13:36:22;;;;;;;6.95;4.55;;;;;;;;;;4896136;29;20080;-49
2022/07/29 13:38:47;;;;;;;8.63;4.20;;;;;;;;;;4896060;29;20477;-51
2022/07/29 13:41:13;;;;;;;5.60;4.20;;;;;;;;;;4895679;29;20096;-43
2022/07/29 13:43:38;;;;;;;4.72;4.05;;;;;;;;;;4895878;29;20031;-48
2022/07/29 13:46:04;;;;;;;5.72;4.32;;;;;;;;;;4895489;29;20771;-54
2022/07/29 13:48:29;;;;;;;6.00;4.03;;;;;;;;;;4895975;29;20119;-51
2022/07/29 13:50:56;;;;;;;6.47;4.40;;;;;;;;;;4895314;29;20444;-50
2022/07/29 13:53:22;;;;;;;4.70;4.20;;;;;;;;;;4895598;29;20059;-43
2022/07/29 13:55:47;;;;;;;5.85;4.30;;;;;;;;;;4895803;29;20474;-46
2022/07/29 13:58:12;;;;;;;6.43;4.70;;;;;;;;;;4895573;29;20096;-47
2022/07/29 14:00:38;;;;;;;5.28;4.43;;;;;;;;;;4895813;29;20038;-51
2022/07/29 14:03:03;;;;;;;6.32;4.47;;;;;;;;;;4895857;29;20478;-48
2022/07/29 14:05:29;;;;;;;5.68;4.47;;;;;;;;;;4895627;29;20031;-48
2022/07/29 14:07:54;;;;;;;5.18;4.38;;;;;;;;;;4895678;29;20032;-51
2022/07/29 14:10:19;;;;;;;6.82;4.88;;;;;;;;;;4895730;29;20434;-44
2022/07/29 14:12:45;;;;;;;4.82;3.97;;;;;;;;;;4895461;29;20040;-46
2022/07/29 14:15:10;;;;;;;5.20;3.92;;;;;;;;;;4895675;29;20088;-51
2022/07/29 14:17:35;;;;;;;6.47;4.03;;;;;;;;;;4895852;29;20072;-53
2022/07/29 14:20:01;;;;;;;5.47;4.70;;;;;;;;;;4897047;29;20389;-49
2022/07/29 14:22:26;;;;;;;5.45;3.90;;;;;;;;;;4898912;29;20027;-42
2022/07/29 14:24:52;;;;;;;5.00;4.47;;;;;;;;;;4899206;29;20037;-47
2022/07/29 14:27:17;;;;;;;5.85;4.25;;;;;;;;;;4899072;29;20466;-40
2022/07/29 14:29:43;;;;;;;4.60;4.15;;;;;;;;;;4898995;29;20040;-42
2022/07/29 14:32:09;;;;;;;7.05;4.28;;;;;;;;;;4899003;29;20115;-44
2022/07/29 14:34:36;;;;;;;4.95;4.45;;;;;;;;;;4898891;29;20140;-41
2022/07/29 14:37:04;;;;;;;4.85;4.35;;;;;;;;;;4898894;29;20040;-44
2022/07/29 14:39:30;;;;;;;4.88;4.45;;;;;;;;;;4898647;29;20036;-42
2022/07/29 14:41:56;;;;;;;5.28;3.90;;;;;;;;;;4898788;29;20021;-43
2022/07/29 14:44:21;;;;;;;6.13;4.07;;;;;;;;;;4898474;29;20505;-41
2022/07/29 14:46:47;;;;;;;5.00;4.50;;;;;;;;;;4898477;29;20486;-42
2022/07/29 14:49:12;;;;;;;8.88;4.50;;;;;;;;;;4898358;29;20029;-41
2022/07/29 14:51:38;;;;;;;4.68;4.07;;;;;;;;;;4898505;29;20060;-43
2022/07/29 14:54:03;;;;;;;5.47;3.80;;;;;;;;;;4898448;29;20397;-42
2022/07/29 14:56:29;;;;;;;5.03;4.50;;;;;;;;;;4898293;29;20115;-41
2022/07/29 14:58:56;;;;;;;4.60;4.18;;;;;;;;;;4898254;29;20029;-41